Terminal Aerodrome Forecast
Issued by NWS

Home | Current Version | Previous Version | Text Only | Print | Product List | Glossary On
Versions: 1 2 3 4 5 6 7 8 9 10 11 12 13 14 15 16 17 18 19
000
FTUS43 KDMX 051737
TAFFOD
TAF
KFOD 051737Z 0518/0618 18016G26KT P6SM BKN150
     FM060000 17012G22KT P6SM BKN035
     FM060300 22012KT 3SM -RASN BR OVC020
     FM060800 29010KT P6SM BKN025
     FM061600 26016G25KT P6SM SCT035 BKN150=

USA.gov is the U.S. government's official web portal to all federal, state and local government web resources and services.